sensor_id;sensor_type;location;lat;lon;timestamp;P1;durP1;ratioP1;P2;durP2;ratioP2
4595;SDS011;2310;49.978;8.742;2022-12-01T00:01:15;33.30;;;21.53;;
4595;SDS011;2310;49.978;8.742;2022-12-01T00:05:16;31.50;;;20.30;;
4595;SDS011;2310;49.978;8.742;2022-12-01T00:09:17;39.00;;;24.43;;
4595;SDS011;2310;49.978;8.742;2022-12-01T00:13:36;31.93;;;19.87;;
4595;SDS011;2310;49.978;8.742;2022-12-01T00:17:38;41.10;;;22.97;;
4595;SDS011;2310;49.978;8.742;2022-12-01T00:21:39;33.40;;;21.77;;
4595;SDS011;2310;49.978;8.742;2022-12-01T00:25:40;35.00;;;25.13;;
4595;SDS011;2310;49.978;8.742;2022-12-01T00:29:42;38.00;;;24.67;;
4595;SDS011;2310;49.978;8.742;2022-12-01T00:33:43;33.73;;;22.30;;
4595;SDS011;2310;49.978;8.742;2022-12-01T00:37:44;33.70;;;23.27;;
4595;SDS011;2310;49.978;8.742;2022-12-01T00:41:45;30.80;;;21.33;;
4595;SDS011;2310;49.978;8.742;2022-12-01T00:45:46;30.97;;;22.07;;
4595;SDS011;2310;49.978;8.742;2022-12-01T00:49:47;36.40;;;23.17;;
4595;SDS011;2310;49.978;8.742;2022-12-01T00:53:49;31.40;;;23.60;;
4595;SDS011;2310;49.978;8.742;2022-12-01T00:57:50;30.60;;;21.00;;
4595;SDS011;2310;49.978;8.742;2022-12-01T01:01:51;34.23;;;21.87;;
4595;SDS011;2310;49.978;8.742;2022-12-01T01:05:53;34.50;;;23.70;;
4595;SDS011;2310;49.978;8.742;2022-12-01T01:09:54;32.30;;;22.60;;
4595;SDS011;2310;49.978;8.742;2022-12-01T01:13:55;36.77;;;23.27;;
4595;SDS011;2310;49.978;8.742;2022-12-01T01:17:59;33.73;;;22.67;;
4595;SDS011;2310;49.978;8.742;2022-12-01T01:22:01;30.20;;;20.80;;
4595;SDS011;2310;49.978;8.742;2022-12-01T01:26:03;34.93;;;24.23;;
4595;SDS011;2310;49.978;8.742;2022-12-01T01:30:07;39.53;;;22.77;;
4595;SDS011;2310;49.978;8.742;2022-12-01T01:34:08;30.30;;;21.13;;
4595;SDS011;2310;49.978;8.742;2022-12-01T01:38:10;38.37;;;25.63;;
4595;SDS011;2310;49.978;8.742;2022-12-01T01:42:12;30.90;;;21.67;;
4595;SDS011;2310;49.978;8.742;2022-12-01T01:50:19;37.53;;;24.90;;
4595;SDS011;2310;49.978;8.742;2022-12-01T01:54:24;32.90;;;22.73;;
4595;SDS011;2310;49.978;8.742;2022-12-01T01:58:28;38.30;;;23.37;;
4595;SDS011;2310;49.978;8.742;2022-12-01T02:02:29;32.60;;;22.23;;
4595;SDS011;2310;49.978;8.742;2022-12-01T02:06:31;36.67;;;22.53;;
4595;SDS011;2310;49.978;8.742;2022-12-01T02:10:43;33.43;;;21.53;;
4595;SDS011;2310;49.978;8.742;2022-12-01T02:14:49;32.80;;;23.20;;
4595;SDS011;2310;49.978;8.742;2022-12-01T02:28:37;35.23;;;23.00;;
4595;SDS011;2310;49.978;8.742;2022-12-01T02:36:51;36.77;;;25.23;;
4595;SDS011;2310;49.978;8.742;2022-12-01T02:41:03;35.97;;;23.83;;
4595;SDS011;2310;49.978;8.742;2022-12-01T02:45:12;39.10;;;25.87;;
4595;SDS011;2310;49.978;8.742;2022-12-01T02:49:16;36.07;;;24.77;;
4595;SDS011;2310;49.978;8.742;2022-12-01T02:53:29;35.60;;;25.43;;
4595;SDS011;2310;49.978;8.742;2022-12-01T02:57:31;32.20;;;22.43;;
4595;SDS011;2310;49.978;8.742;2022-12-01T03:18:37;33.87;;;23.70;;
4595;SDS011;2310;49.978;8.742;2022-12-01T03:22:44;35.90;;;23.77;;
4595;SDS011;2310;49.978;8.742;2022-12-01T03:26:50;31.90;;;22.40;;
4595;SDS011;2310;49.978;8.742;2022-12-01T03:30:56;32.97;;;22.20;;
4595;SDS011;2310;49.978;8.742;2022-12-01T03:35:01;35.07;;;26.63;;
4595;SDS011;2310;49.978;8.742;2022-12-01T03:39:10;35.73;;;24.00;;
4595;SDS011;2310;49.978;8.742;2022-12-01T03:43:15;37.47;;;25.47;;
4595;SDS011;2310;49.978;8.742;2022-12-01T03:47:23;37.33;;;24.93;;
4595;SDS011;2310;49.978;8.742;2022-12-01T03:51:35;37.50;;;26.10;;
4595;SDS011;2310;49.978;8.742;2022-12-01T03:55:56;30.63;;;21.17;;
4595;SDS011;2310;49.978;8.742;2022-12-01T04:00:00;31.90;;;22.50;;
4595;SDS011;2310;49.978;8.742;2022-12-01T04:04:09;33.60;;;24.00;;
4595;SDS011;2310;49.978;8.742;2022-12-01T04:08:11;31.83;;;22.80;;
4595;SDS011;2310;49.978;8.742;2022-12-01T04:12:13;34.63;;;22.97;;
4595;SDS011;2310;49.978;8.742;2022-12-01T04:16:29;31.63;;;22.53;;
4595;SDS011;2310;49.978;8.742;2022-12-01T04:20:30;31.10;;;22.07;;
4595;SDS011;2310;49.978;8.742;2022-12-01T04:24:31;32.40;;;23.30;;
4595;SDS011;2310;49.978;8.742;2022-12-01T04:28:32;34.53;;;23.83;;
4595;SDS011;2310;49.978;8.742;2022-12-01T04:32:38;32.13;;;21.50;;
4595;SDS011;2310;49.978;8.742;2022-12-01T04:36:39;30.90;;;20.50;;
4595;SDS011;2310;49.978;8.742;2022-12-01T04:40:41;29.37;;;19.70;;
4595;SDS011;2310;49.978;8.742;2022-12-01T04:44:42;31.63;;;21.40;;
4595;SDS011;2310;49.978;8.742;2022-12-01T04:48:43;35.30;;;23.83;;
4595;SDS011;2310;49.978;8.742;2022-12-01T04:52:44;30.17;;;21.57;;
4595;SDS011;2310;49.978;8.742;2022-12-01T04:56:46;30.50;;;21.73;;
4595;SDS011;2310;49.978;8.742;2022-12-01T05:00:47;33.07;;;21.93;;
4595;SDS011;2310;49.978;8.742;2022-12-01T05:04:48;26.60;;;20.27;;
4595;SDS011;2310;49.978;8.742;2022-12-01T05:08:49;33.03;;;22.20;;
4595;SDS011;2310;49.978;8.742;2022-12-01T05:12:51;27.90;;;21.40;;
4595;SDS011;2310;49.978;8.742;2022-12-01T05:16:52;32.50;;;23.43;;
4595;SDS011;2310;49.978;8.742;2022-12-01T05:20:54;33.10;;;22.13;;
4595;SDS011;2310;49.978;8.742;2022-12-01T05:24:58;35.73;;;23.00;;
4595;SDS011;2310;49.978;8.742;2022-12-01T05:29:00;32.53;;;21.83;;
4595;SDS011;2310;49.978;8.742;2022-12-01T05:33:01;33.73;;;22.80;;
4595;SDS011;2310;49.978;8.742;2022-12-01T05:37:03;28.97;;;18.57;;
4595;SDS011;2310;49.978;8.742;2022-12-01T05:41:04;33.50;;;22.70;;
4595;SDS011;2310;49.978;8.742;2022-12-01T05:45:06;27.63;;;20.27;;
4595;SDS011;2310;49.978;8.742;2022-12-01T05:49:07;30.10;;;19.80;;
4595;SDS011;2310;49.978;8.742;2022-12-01T05:53:09;31.00;;;21.23;;
4595;SDS011;2310;49.978;8.742;2022-12-01T05:57:12;26.87;;;19.00;;
4595;SDS011;2310;49.978;8.742;2022-12-01T06:01:13;26.70;;;19.23;;
4595;SDS011;2310;49.978;8.742;2022-12-01T06:05:15;24.13;;;17.53;;
4595;SDS011;2310;49.978;8.742;2022-12-01T06:09:16;28.07;;;19.90;;
4595;SDS011;2310;49.978;8.742;2022-12-01T06:13:17;29.63;;;21.37;;
4595;SDS011;2310;49.978;8.742;2022-12-01T06:17:18;34.03;;;20.57;;
4595;SDS011;2310;49.978;8.742;2022-12-01T06:21:20;27.90;;;17.80;;
4595;SDS011;2310;49.978;8.742;2022-12-01T06:25:21;24.47;;;16.20;;
4595;SDS011;2310;49.978;8.742;2022-12-01T06:29:22;26.77;;;18.13;;
4595;SDS011;2310;49.978;8.742;2022-12-01T06:33:23;27.17;;;19.20;;
4595;SDS011;2310;49.978;8.742;2022-12-01T06:37:25;28.33;;;19.00;;
4595;SDS011;2310;49.978;8.742;2022-12-01T06:41:27;23.03;;;16.47;;
4595;SDS011;2310;49.978;8.742;2022-12-01T06:45:28;26.57;;;17.60;;
4595;SDS011;2310;49.978;8.742;2022-12-01T06:49:30;25.40;;;17.83;;
4595;SDS011;2310;49.978;8.742;2022-12-01T06:53:31;23.83;;;16.90;;
4595;SDS011;2310;49.978;8.742;2022-12-01T06:57:32;27.13;;;17.47;;
4595;SDS011;2310;49.978;8.742;2022-12-01T07:01:34;23.10;;;15.80;;
4595;SDS011;2310;49.978;8.742;2022-12-01T07:05:35;24.87;;;17.37;;
4595;SDS011;2310;49.978;8.742;2022-12-01T07:09:36;26.73;;;17.90;;
4595;SDS011;2310;49.978;8.742;2022-12-01T07:13:38;22.90;;;16.67;;
4595;SDS011;2310;49.978;8.742;2022-12-01T07:17:40;22.33;;;16.30;;
4595;SDS011;2310;49.978;8.742;2022-12-01T07:21:41;25.77;;;16.53;;
4595;SDS011;2310;49.978;8.742;2022-12-01T07:25:42;21.27;;;14.93;;
4595;SDS011;2310;49.978;8.742;2022-12-01T07:29:43;23.00;;;16.40;;
4595;SDS011;2310;49.978;8.742;2022-12-01T07:33:44;20.50;;;15.57;;
4595;SDS011;2310;49.978;8.742;2022-12-01T07:37:46;20.80;;;14.00;;
4595;SDS011;2310;49.978;8.742;2022-12-01T07:41:47;24.07;;;16.47;;
4595;SDS011;2310;49.978;8.742;2022-12-01T07:45:48;24.60;;;16.70;;
4595;SDS011;2310;49.978;8.742;2022-12-01T07:49:49;25.10;;;15.23;;
4595;SDS011;2310;49.978;8.742;2022-12-01T07:53:51;22.53;;;15.80;;
4595;SDS011;2310;49.978;8.742;2022-12-01T07:57:54;22.70;;;15.57;;
4595;SDS011;2310;49.978;8.742;2022-12-01T08:01:55;23.43;;;14.93;;
4595;SDS011;2310;49.978;8.742;2022-12-01T08:05:56;24.33;;;16.83;;
4595;SDS011;2310;49.978;8.742;2022-12-01T08:09:58;24.80;;;15.07;;
4595;SDS011;2310;49.978;8.742;2022-12-01T08:13:59;20.20;;;14.87;;
4595;SDS011;2310;49.978;8.742;2022-12-01T08:18:00;22.73;;;15.63;;
4595;SDS011;2310;49.978;8.742;2022-12-01T08:22:02;24.77;;;15.93;;
4595;SDS011;2310;49.978;8.742;2022-12-01T08:26:04;21.10;;;15.10;;
4595;SDS011;2310;49.978;8.742;2022-12-01T08:30:07;21.73;;;14.37;;
4595;SDS011;2310;49.978;8.742;2022-12-01T08:34:09;21.43;;;14.00;;
4595;SDS011;2310;49.978;8.742;2022-12-01T08:38:10;20.40;;;14.90;;
4595;SDS011;2310;49.978;8.742;2022-12-01T08:42:11;20.37;;;15.87;;
4595;SDS011;2310;49.978;8.742;2022-12-01T08:46:13;21.13;;;13.23;;
4595;SDS011;2310;49.978;8.742;2022-12-01T08:50:15;18.33;;;13.40;;
4595;SDS011;2310;49.978;8.742;2022-12-01T08:54:16;20.67;;;13.70;;
4595;SDS011;2310;49.978;8.742;2022-12-01T08:58:18;22.00;;;16.03;;
4595;SDS011;2310;49.978;8.742;2022-12-01T09:02:19;18.80;;;14.07;;
4595;SDS011;2310;49.978;8.742;2022-12-01T09:06:23;18.17;;;13.27;;
4595;SDS011;2310;49.978;8.742;2022-12-01T09:10:24;19.80;;;13.83;;
4595;SDS011;2310;49.978;8.742;2022-12-01T09:14:25;15.80;;;12.00;;
4595;SDS011;2310;49.978;8.742;2022-12-01T09:18:26;23.90;;;16.73;;
4595;SDS011;2310;49.978;8.742;2022-12-01T09:22:28;23.37;;;14.23;;
4595;SDS011;2310;49.978;8.742;2022-12-01T09:26:29;18.97;;;13.17;;
4595;SDS011;2310;49.978;8.742;2022-12-01T09:30:31;17.20;;;13.57;;
4595;SDS011;2310;49.978;8.742;2022-12-01T09:34:34;16.80;;;11.90;;
4595;SDS011;2310;49.978;8.742;2022-12-01T09:38:36;16.77;;;11.60;;
4595;SDS011;2310;49.978;8.742;2022-12-01T09:42:38;18.80;;;12.97;;
4595;SDS011;2310;49.978;8.742;2022-12-01T09:46:42;20.63;;;13.00;;
4595;SDS011;2310;49.978;8.742;2022-12-01T09:50:48;18.27;;;11.50;;
4595;SDS011;2310;49.978;8.742;2022-12-01T09:54:50;19.37;;;14.20;;
4595;SDS011;2310;49.978;8.742;2022-12-01T09:59:03;19.43;;;11.90;;
4595;SDS011;2310;49.978;8.742;2022-12-01T10:03:18;20.07;;;12.43;;
4595;SDS011;2310;49.978;8.742;2022-12-01T10:07:21;16.20;;;11.20;;
4595;SDS011;2310;49.978;8.742;2022-12-01T10:11:35;20.33;;;13.60;;
4595;SDS011;2310;49.978;8.742;2022-12-01T10:15:42;18.40;;;12.90;;
4595;SDS011;2310;49.978;8.742;2022-12-01T10:20:00;17.17;;;12.40;;
4595;SDS011;2310;49.978;8.742;2022-12-01T10:28:19;20.20;;;15.40;;
4595;SDS011;2310;49.978;8.742;2022-12-01T10:32:25;17.57;;;13.37;;
4595;SDS011;2310;49.978;8.742;2022-12-01T10:36:29;21.47;;;15.73;;
4595;SDS011;2310;49.978;8.742;2022-12-01T10:40:33;20.30;;;15.50;;
4595;SDS011;2310;49.978;8.742;2022-12-01T10:44:35;23.50;;;14.77;;
4595;SDS011;2310;49.978;8.742;2022-12-01T10:48:40;18.13;;;13.23;;
4595;SDS011;2310;49.978;8.742;2022-12-01T10:52:41;15.10;;;11.30;;
4595;SDS011;2310;49.978;8.742;2022-12-01T10:56:46;15.43;;;10.00;;
4595;SDS011;2310;49.978;8.742;2022-12-01T11:01:00;13.27;;;9.70;;
4595;SDS011;2310;49.978;8.742;2022-12-01T11:05:00;15.07;;;10.80;;
4595;SDS011;2310;49.978;8.742;2022-12-01T11:09:06;13.80;;;10.50;;
4595;SDS011;2310;49.978;8.742;2022-12-01T11:13:18;16.20;;;10.80;;
4595;SDS011;2310;49.978;8.742;2022-12-01T11:17:38;13.80;;;10.13;;
4595;SDS011;2310;49.978;8.742;2022-12-01T11:21:47;13.40;;;10.97;;
4595;SDS011;2310;49.978;8.742;2022-12-01T11:25:58;17.20;;;11.80;;
4595;SDS011;2310;49.978;8.742;2022-12-01T11:30:05;16.20;;;12.27;;
4595;SDS011;2310;49.978;8.742;2022-12-01T11:34:17;20.63;;;12.93;;
4595;SDS011;2310;49.978;8.742;2022-12-01T11:38:22;19.70;;;11.90;;
4595;SDS011;2310;49.978;8.742;2022-12-01T11:42:28;19.30;;;13.30;;
4595;SDS011;2310;49.978;8.742;2022-12-01T11:46:32;19.63;;;13.70;;
4595;SDS011;2310;49.978;8.742;2022-12-01T11:50:36;17.13;;;13.20;;
4595;SDS011;2310;49.978;8.742;2022-12-01T11:54:40;19.70;;;14.40;;
4595;SDS011;2310;49.978;8.742;2022-12-01T11:58:44;21.40;;;15.80;;
4595;SDS011;2310;49.978;8.742;2022-12-01T12:15:52;24.30;;;16.10;;
4595;SDS011;2310;49.978;8.742;2022-12-01T12:20:05;22.00;;;15.53;;
4595;SDS011;2310;49.978;8.742;2022-12-01T12:24:29;19.00;;;14.73;;
4595;SDS011;2310;49.978;8.742;2022-12-01T12:37:09;23.83;;;15.00;;
4595;SDS011;2310;49.978;8.742;2022-12-01T12:46:09;20.57;;;13.67;;
4595;SDS011;2310;49.978;8.742;2022-12-01T12:50:26;19.43;;;13.80;;
4595;SDS011;2310;49.978;8.742;2022-12-01T12:54:33;18.67;;;14.37;;
4595;SDS011;2310;49.978;8.742;2022-12-01T12:58:54;19.13;;;15.10;;
4595;SDS011;2310;49.978;8.742;2022-12-01T13:03:16;20.50;;;13.80;;
4595;SDS011;2310;49.978;8.742;2022-12-01T13:07:35;19.90;;;15.23;;
4595;SDS011;2310;49.978;8.742;2022-12-01T13:12:01;17.00;;;12.60;;
4595;SDS011;2310;49.978;8.742;2022-12-01T13:16:04;19.47;;;14.70;;
4595;SDS011;2310;49.978;8.742;2022-12-01T13:20:15;17.73;;;12.83;;
4595;SDS011;2310;49.978;8.742;2022-12-01T13:24:20;19.77;;;14.07;;
4595;SDS011;2310;49.978;8.742;2022-12-01T13:28:33;19.13;;;14.77;;
4595;SDS011;2310;49.978;8.742;2022-12-01T13:32:35;16.73;;;11.27;;
4595;SDS011;2310;49.978;8.742;2022-12-01T13:36:38;19.43;;;12.40;;
4595;SDS011;2310;49.978;8.742;2022-12-01T13:40:44;37.77;;;16.23;;
4595;SDS011;2310;49.978;8.742;2022-12-01T13:44:57;23.73;;;13.40;;
4595;SDS011;2310;49.978;8.742;2022-12-01T13:48:58;27.33;;;15.20;;
4595;SDS011;2310;49.978;8.742;2022-12-01T13:53:09;17.37;;;13.03;;
4595;SDS011;2310;49.978;8.742;2022-12-01T13:57:12;20.40;;;13.77;;
4595;SDS011;2310;49.978;8.742;2022-12-01T14:09:57;22.70;;;16.63;;
4595;SDS011;2310;49.978;8.742;2022-12-01T14:14:20;24.20;;;17.03;;
4595;SDS011;2310;49.978;8.742;2022-12-01T14:26:44;28.30;;;17.90;;
4595;SDS011;2310;49.978;8.742;2022-12-01T14:34:54;25.43;;;17.63;;
4595;SDS011;2310;49.978;8.742;2022-12-01T14:43:02;27.10;;;20.60;;
4595;SDS011;2310;49.978;8.742;2022-12-01T14:47:28;27.77;;;19.93;;
4595;SDS011;2310;49.978;8.742;2022-12-01T14:51:32;30.53;;;21.20;;
4595;SDS011;2310;49.978;8.742;2022-12-01T14:55:39;27.80;;;20.13;;
4595;SDS011;2310;49.978;8.742;2022-12-01T14:59:43;26.17;;;18.73;;
4595;SDS011;2310;49.978;8.742;2022-12-01T15:03:45;31.50;;;21.70;;
4595;SDS011;2310;49.978;8.742;2022-12-01T15:07:49;27.90;;;18.73;;
4595;SDS011;2310;49.978;8.742;2022-12-01T15:11:59;31.50;;;21.57;;
4595;SDS011;2310;49.978;8.742;2022-12-01T15:16:03;25.87;;;19.27;;
4595;SDS011;2310;49.978;8.742;2022-12-01T15:24:34;30.07;;;20.70;;
4595;SDS011;2310;49.978;8.742;2022-12-01T15:28:35;33.37;;;23.17;;
4595;SDS011;2310;49.978;8.742;2022-12-01T15:32:36;33.23;;;21.77;;
4595;SDS011;2310;49.978;8.742;2022-12-01T15:36:38;29.43;;;20.90;;
4595;SDS011;2310;49.978;8.742;2022-12-01T15:40:40;29.13;;;20.57;;
4595;SDS011;2310;49.978;8.742;2022-12-01T15:44:44;26.03;;;19.30;;
4595;SDS011;2310;49.978;8.742;2022-12-01T15:48:49;29.87;;;19.93;;
4595;SDS011;2310;49.978;8.742;2022-12-01T15:52:54;31.17;;;20.27;;
4595;SDS011;2310;49.978;8.742;2022-12-01T15:56:58;31.33;;;23.00;;
4595;SDS011;2310;49.978;8.742;2022-12-01T16:01:11;32.50;;;21.07;;
4595;SDS011;2310;49.978;8.742;2022-12-01T16:05:17;34.30;;;22.87;;
4595;SDS011;2310;49.978;8.742;2022-12-01T16:09:26;28.98;;;22.95;;
4595;SDS011;2310;49.978;8.742;2022-12-01T16:17:47;34.17;;;23.07;;
4595;SDS011;2310;49.978;8.742;2022-12-01T16:21:51;29.40;;;21.17;;
4595;SDS011;2310;49.978;8.742;2022-12-01T16:26:06;29.53;;;20.57;;
4595;SDS011;2310;49.978;8.742;2022-12-01T16:30:19;26.43;;;19.70;;
4595;SDS011;2310;49.978;8.742;2022-12-01T16:34:22;31.30;;;21.33;;
4595;SDS011;2310;49.978;8.742;2022-12-01T16:38:27;36.23;;;23.73;;
4595;SDS011;2310;49.978;8.742;2022-12-01T16:42:29;36.13;;;23.33;;
4595;SDS011;2310;49.978;8.742;2022-12-01T16:46:30;39.70;;;25.00;;
4595;SDS011;2310;49.978;8.742;2022-12-01T16:50:32;31.50;;;20.43;;
4595;SDS011;2310;49.978;8.742;2022-12-01T16:54:34;35.70;;;23.50;;
4595;SDS011;2310;49.978;8.742;2022-12-01T16:58:35;38.17;;;23.90;;
4595;SDS011;2310;49.978;8.742;2022-12-01T17:02:36;41.77;;;25.63;;
4595;SDS011;2310;49.978;8.742;2022-12-01T17:06:37;37.70;;;25.97;;
4595;SDS011;2310;49.978;8.742;2022-12-01T17:10:44;32.67;;;21.90;;
4595;SDS011;2310;49.978;8.742;2022-12-01T17:14:42;35.13;;;22.67;;
4595;SDS011;2310;49.978;8.742;2022-12-01T17:18:44;32.87;;;23.30;;
4595;SDS011;2310;49.978;8.742;2022-12-01T17:22:45;35.40;;;22.90;;
4595;SDS011;2310;49.978;8.742;2022-12-01T17:26:46;34.70;;;20.73;;
4595;SDS011;2310;49.978;8.742;2022-12-01T17:30:47;36.60;;;24.03;;
4595;SDS011;2310;49.978;8.742;2022-12-01T17:34:48;34.97;;;22.67;;
4595;SDS011;2310;49.978;8.742;2022-12-01T17:38:50;34.23;;;24.37;;
4595;SDS011;2310;49.978;8.742;2022-12-01T17:42:51;38.17;;;23.73;;
4595;SDS011;2310;49.978;8.742;2022-12-01T17:46:52;41.30;;;26.50;;
4595;SDS011;2310;49.978;8.742;2022-12-01T17:50:54;34.57;;;22.63;;
4595;SDS011;2310;49.978;8.742;2022-12-01T17:54:55;44.37;;;27.20;;
4595;SDS011;2310;49.978;8.742;2022-12-01T17:58:57;40.97;;;25.00;;
4595;SDS011;2310;49.978;8.742;2022-12-01T18:02:59;39.23;;;26.07;;
4595;SDS011;2310;49.978;8.742;2022-12-01T18:07:00;41.93;;;26.90;;
4595;SDS011;2310;49.978;8.742;2022-12-01T18:11:02;38.70;;;24.90;;
4595;SDS011;2310;49.978;8.742;2022-12-01T18:15:06;35.93;;;25.43;;
4595;SDS011;2310;49.978;8.742;2022-12-01T18:19:08;38.03;;;25.83;;
4595;SDS011;2310;49.978;8.742;2022-12-01T18:23:10;35.90;;;25.90;;
4595;SDS011;2310;49.978;8.742;2022-12-01T18:27:12;38.60;;;25.70;;
4595;SDS011;2310;49.978;8.742;2022-12-01T18:31:14;35.80;;;24.17;;
4595;SDS011;2310;49.978;8.742;2022-12-01T18:35:16;45.77;;;27.43;;
4595;SDS011;2310;49.978;8.742;2022-12-01T18:39:17;37.70;;;23.53;;
4595;SDS011;2310;49.978;8.742;2022-12-01T18:43:18;44.47;;;28.10;;
4595;SDS011;2310;49.978;8.742;2022-12-01T18:47:19;43.27;;;28.73;;
4595;SDS011;2310;49.978;8.742;2022-12-01T18:51:20;39.33;;;26.97;;
4595;SDS011;2310;49.978;8.742;2022-12-01T18:55:21;41.27;;;26.50;;
4595;SDS011;2310;49.978;8.742;2022-12-01T18:59:23;41.33;;;28.17;;
4595;SDS011;2310;49.978;8.742;2022-12-01T19:03:30;41.07;;;27.57;;
4595;SDS011;2310;49.978;8.742;2022-12-01T19:07:31;36.00;;;25.47;;
4595;SDS011;2310;49.978;8.742;2022-12-01T19:11:33;47.07;;;28.00;;
4595;SDS011;2310;49.978;8.742;2022-12-01T19:15:36;46.93;;;26.10;;
4595;SDS011;2310;49.978;8.742;2022-12-01T19:19:37;36.07;;;24.63;;
4595;SDS011;2310;49.978;8.742;2022-12-01T19:23:38;44.03;;;27.40;;
4595;SDS011;2310;49.978;8.742;2022-12-01T19:27:39;47.43;;;28.87;;
4595;SDS011;2310;49.978;8.742;2022-12-01T19:31:40;40.23;;;25.80;;
4595;SDS011;2310;49.978;8.742;2022-12-01T19:35:42;42.30;;;29.13;;
4595;SDS011;2310;49.978;8.742;2022-12-01T19:39:43;40.03;;;25.70;;
4595;SDS011;2310;49.978;8.742;2022-12-01T19:43:44;43.33;;;27.90;;
4595;SDS011;2310;49.978;8.742;2022-12-01T19:47:46;39.90;;;28.53;;
4595;SDS011;2310;49.978;8.742;2022-12-01T19:51:47;46.63;;;28.93;;
4595;SDS011;2310;49.978;8.742;2022-12-01T19:55:48;42.47;;;27.40;;
4595;SDS011;2310;49.978;8.742;2022-12-01T19:59:49;41.07;;;24.67;;
4595;SDS011;2310;49.978;8.742;2022-12-01T20:03:51;44.50;;;29.20;;
4595;SDS011;2310;49.978;8.742;2022-12-01T20:07:53;44.03;;;28.57;;
4595;SDS011;2310;49.978;8.742;2022-12-01T20:11:54;42.77;;;27.00;;
4595;SDS011;2310;49.978;8.742;2022-12-01T20:16:09;43.43;;;29.23;;
4595;SDS011;2310;49.978;8.742;2022-12-01T20:20:12;41.50;;;27.33;;
4595;SDS011;2310;49.978;8.742;2022-12-01T20:24:15;44.50;;;28.20;;
4595;SDS011;2310;49.978;8.742;2022-12-01T20:28:21;39.10;;;25.23;;
4595;SDS011;2310;49.978;8.742;2022-12-01T20:32:22;39.83;;;25.87;;
4595;SDS011;2310;49.978;8.742;2022-12-01T20:36:24;37.30;;;26.17;;
4595;SDS011;2310;49.978;8.742;2022-12-01T20:40:26;42.57;;;27.43;;
4595;SDS011;2310;49.978;8.742;2022-12-01T20:44:28;39.77;;;26.37;;
4595;SDS011;2310;49.978;8.742;2022-12-01T20:48:29;45.13;;;27.97;;
4595;SDS011;2310;49.978;8.742;2022-12-01T20:52:31;35.30;;;22.87;;
4595;SDS011;2310;49.978;8.742;2022-12-01T20:56:32;40.33;;;26.13;;
4595;SDS011;2310;49.978;8.742;2022-12-01T21:00:37;38.67;;;27.40;;
4595;SDS011;2310;49.978;8.742;2022-12-01T21:04:41;39.33;;;25.23;;
4595;SDS011;2310;49.978;8.742;2022-12-01T21:08:43;42.07;;;26.97;;
4595;SDS011;2310;49.978;8.742;2022-12-01T21:12:47;40.37;;;24.70;;
4595;SDS011;2310;49.978;8.742;2022-12-01T21:17:27;43.10;;;25.50;;
4595;SDS011;2310;49.978;8.742;2022-12-01T21:21:33;42.27;;;25.57;;
4595;SDS011;2310;49.978;8.742;2022-12-01T21:25:37;41.13;;;25.90;;
4595;SDS011;2310;49.978;8.742;2022-12-01T21:29:43;42.50;;;26.73;;
4595;SDS011;2310;49.978;8.742;2022-12-01T21:33:46;43.20;;;24.77;;
4595;SDS011;2310;49.978;8.742;2022-12-01T21:37:47;39.83;;;26.47;;
4595;SDS011;2310;49.978;8.742;2022-12-01T21:41:51;38.30;;;24.60;;
4595;SDS011;2310;49.978;8.742;2022-12-01T21:45:55;42.30;;;25.90;;
4595;SDS011;2310;49.978;8.742;2022-12-01T21:50:02;38.63;;;25.03;;
4595;SDS011;2310;49.978;8.742;2022-12-01T21:54:05;40.33;;;25.17;;
4595;SDS011;2310;49.978;8.742;2022-12-01T21:58:19;37.30;;;24.80;;
4595;SDS011;2310;49.978;8.742;2022-12-01T22:02:23;36.33;;;23.27;;
4595;SDS011;2310;49.978;8.742;2022-12-01T22:06:40;43.93;;;24.67;;
4595;SDS011;2310;49.978;8.742;2022-12-01T22:10:59;41.10;;;26.17;;
4595;SDS011;2310;49.978;8.742;2022-12-01T22:15:02;41.63;;;23.37;;
4595;SDS011;2310;49.978;8.742;2022-12-01T22:19:20;40.83;;;24.37;;
4595;SDS011;2310;49.978;8.742;2022-12-01T22:23:18;42.13;;;25.57;;
4595;SDS011;2310;49.978;8.742;2022-12-01T22:31:34;42.07;;;24.17;;
4595;SDS011;2310;49.978;8.742;2022-12-01T22:35:42;38.77;;;23.33;;
4595;SDS011;2310;49.978;8.742;2022-12-01T22:39:55;36.27;;;23.57;;
4595;SDS011;2310;49.978;8.742;2022-12-01T22:43:55;35.90;;;23.90;;
4595;SDS011;2310;49.978;8.742;2022-12-01T22:47:59;44.67;;;27.73;;
4595;SDS011;2310;49.978;8.742;2022-12-01T22:52:05;46.67;;;27.33;;
4595;SDS011;2310;49.978;8.742;2022-12-01T22:56:19;37.37;;;24.13;;
4595;SDS011;2310;49.978;8.742;2022-12-01T23:00:38;47.23;;;28.80;;
4595;SDS011;2310;49.978;8.742;2022-12-01T23:04:40;43.50;;;25.83;;
4595;SDS011;2310;49.978;8.742;2022-12-01T23:08:42;53.53;;;29.40;;
4595;SDS011;2310;49.978;8.742;2022-12-01T23:12:44;34.10;;;22.13;;
4595;SDS011;2310;49.978;8.742;2022-12-01T23:16:47;37.63;;;25.93;;
4595;SDS011;2310;49.978;8.742;2022-12-01T23:20:51;41.13;;;26.03;;
4595;SDS011;2310;49.978;8.742;2022-12-01T23:24:54;40.70;;;26.40;;
4595;SDS011;2310;49.978;8.742;2022-12-01T23:28:56;38.93;;;22.83;;
4595;SDS011;2310;49.978;8.742;2022-12-01T23:33:16;41.00;;;27.30;;
4595;SDS011;2310;49.978;8.742;2022-12-01T23:37:33;40.60;;;25.10;;
4595;SDS011;2310;49.978;8.742;2022-12-01T23:41:40;36.93;;;23.80;;
4595;SDS011;2310;49.978;8.742;2022-12-01T23:45:43;33.47;;;23.30;;
4595;SDS011;2310;49.978;8.742;2022-12-01T23:49:45;39.77;;;25.40;;
4595;SDS011;2310;49.978;8.742;2022-12-01T23:53:50;37.50;;;24.60;;
4595;SDS011;2310;49.978;8.742;2022-12-01T23:57:52;36.97;;;22.27;;
